Khanewal Weather



Khanewal's Current Weather

Temprature 8o mist

mist

Rain: 0 %

Min Temprature8o
Max Temprature8o
Humidity81
Wind Speed4.12 m/h
Sun Rise07:08:50
Sun Set17:36:04
Current Time: 18-Jan-2021 05:59:29
Lat/Lon: 30.3, 71.9333




Khanewal's Geo Location



Khanewal's Weather Forecast

Time Overall Temp Min Temp Max Temp Humidity Wind Speed Rain
18-Jan-2021 (Mon)
08:00:00 scattered clouds 8.590 8.590 9.210 66 2.59 m/h 0 %
11:00:00 few clouds 16.370 16.370 18.670 38 3.34 m/h 0 %
14:00:00 clear sky 22.010 22.010 22.970 23 4.23 m/h 0 %
17:00:00 clear sky 20.030 20.030 20.130 24 3.17 m/h 0 %
20:00:00 clear sky 13.520 13.520 13.520 37 3.2 m/h 0 %
23:00:00 clear sky 11.740 11.740 11.740 42 2.71 m/h 0 %
19-Jan-2021 (Tue)
02:00:00 clear sky 10.570 10.570 10.570 46 2.04 m/h 0 %
05:00:00 clear sky 9.450 9.450 9.450 50 1.46 m/h 0 %
08:00:00 clear sky 10.770 10.770 10.770 46 1.01 m/h 0 %
11:00:00 clear sky 20.360 20.360 20.360 24 1.44 m/h 0 %
14:00:00 clear sky 24.100 24.100 24.100 17 2.36 m/h 0 %
17:00:00 clear sky 21.310 21.310 21.310 20 2.47 m/h 0 %
20:00:00 clear sky 14.850 14.850 14.850 32 2.24 m/h 0 %
23:00:00 clear sky 13.210 13.210 13.210 36 1.27 m/h 0 %
20-Jan-2021 (Wed)
02:00:00 clear sky 11.850 11.850 11.850 39 0.26 m/h 0 %
05:00:00 clear sky 10.760 10.760 10.760 42 0.56 m/h 0 %
08:00:00 clear sky 12.210 12.210 12.210 38 0.52 m/h 0 %
11:00:00 clear sky 22.620 22.620 22.620 20 0.94 m/h 0 %
14:00:00 clear sky 25.780 25.780 25.780 16 2.35 m/h 0 %
17:00:00 clear sky 22.590 22.590 22.590 19 2.04 m/h 0 %
20:00:00 clear sky 15.910 15.910 15.910 29 1.88 m/h 0 %
23:00:00 clear sky 14.270 14.270 14.270 33 1.1 m/h 0 %
21-Jan-2021 (Thu)
02:00:00 clear sky 13.030 13.030 13.030 35 1.04 m/h 0 %
05:00:00 clear sky 12.060 12.060 12.060 38 0.46 m/h 0 %
08:00:00 clear sky 13.460 13.460 13.460 34 0.9 m/h 0 %
11:00:00 clear sky 23.390 23.390 23.390 18 2.32 m/h 0 %
14:00:00 clear sky 27.640 27.640 27.640 14 3.15 m/h 0 %
17:00:00 clear sky 24.710 24.710 24.710 17 1.34 m/h 0 %
20:00:00 clear sky 17.760 17.760 17.760 27 2.04 m/h 0 %
23:00:00 clear sky 16.010 16.010 16.010 30 2.42 m/h 0 %
22-Jan-2021 (Fri)
02:00:00 clear sky 14.570 14.570 14.570 33 2.36 m/h 0 %
05:00:00 clear sky 13.390 13.390 13.390 35 2.42 m/h 0 %
08:00:00 clear sky 13.870 13.870 13.870 34 2.24 m/h 0 %
11:00:00 clear sky 23.470 23.470 23.470 18 1.25 m/h 0 %
14:00:00 clear sky 27.280 27.280 27.280 15 1.86 m/h 0 %
17:00:00 scattered clouds 24.210 24.210 24.210 19 2.69 m/h 0 %
20:00:00 broken clouds 17.460 17.460 17.460 28 1.67 m/h 0 %
23:00:00 overcast clouds 16.080 16.080 16.080 31 3.29 m/h 0 %
23-Jan-2021 (Sat)
02:00:00 overcast clouds 13.790 13.790 13.790 36 4.18 m/h 0 %
05:00:00 broken clouds 11.880 11.880 11.880 38 4.14 m/h 0 %

Famous Cities (60)